createdAt,value
2018-12-29T00:05:20.815Z,98093.38
2018-12-29T00:08:11.865Z,98101.20
2018-12-29T00:10:55.262Z,98109.66
2018-12-29T00:13:46.261Z,98109.73
2018-12-29T00:16:18.343Z,98113.01
2018-12-29T00:19:09.349Z,98100.31
2018-12-29T00:21:53.442Z,98114.05
2018-12-29T00:27:52.676Z,98113.00
2018-12-29T00:30:43.661Z,98073.80
2018-12-29T00:33:27.360Z,98119.30
2018-12-29T00:36:18.359Z,98108.36
2018-12-29T00:39:02.283Z,98118.36
2018-12-29T00:41:46.617Z,98122.34
2018-12-29T00:44:30.701Z,98117.70
2018-12-29T00:47:21.744Z,98107.06
2018-12-29T00:50:05.257Z,98126.50
2018-12-29T00:55:58.907Z,98134.89
2018-12-29T00:58:50.193Z,98149.77
2018-12-29T01:01:33.817Z,98151.95
2018-12-29T01:04:24.899Z,98152.34
2018-12-29T01:07:08.652Z,98152.42
2018-12-29T01:09:51.958Z,98158.95
2018-12-29T01:12:42.997Z,98153.95
2018-12-29T01:15:26.690Z,98139.52
2018-12-29T01:18:17.646Z,98152.79
2018-12-29T01:21:01.287Z,98167.50
2018-12-29T01:23:52.289Z,98128.16
2018-12-29T01:26:36.361Z,98172.27
2018-12-29T01:29:27.375Z,98172.20
2018-12-29T01:32:11.042Z,98177.09
2018-12-29T01:34:55.254Z,98183.11
2018-12-29T01:37:46.232Z,98185.25
2018-12-29T01:40:18.023Z,98185.97
2018-12-29T01:43:09.286Z,98196.78
2018-12-29T01:45:52.894Z,98203.23
2018-12-29T01:48:43.850Z,98205.77
2018-12-29T01:51:25.973Z,98213.94
2018-12-29T01:54:16.932Z,98213.23
2018-12-29T01:56:59.239Z,98215.70
2018-12-29T01:59:50.198Z,98215.52
2018-12-29T02:02:33.481Z,98215.74
2018-12-29T02:05:24.513Z,98163.26
2018-12-29T02:08:08.260Z,98202.17
2018-12-29T02:10:51.784Z,98194.07
2018-12-29T02:13:42.739Z,98203.61
2018-12-29T02:16:26.938Z,98206.31
2018-12-29T02:19:17.887Z,98197.70
2018-12-29T02:22:01.754Z,98198.88
2018-12-29T02:24:53.113Z,98145.95
2018-12-29T02:27:36.868Z,98150.28
2018-12-29T02:30:28.845Z,98163.92
2018-12-29T02:33:12.480Z,98158.78
2018-12-29T02:35:55.828Z,98153.84
2018-12-29T02:38:39.311Z,98137.76
2018-12-29T02:41:23.293Z,98139.41
2018-12-29T02:44:14.244Z,98114.09
2018-12-29T02:46:57.579Z,98155.33
2018-12-29T02:49:48.535Z,98170.28
2018-12-29T02:52:31.821Z,98165.17
2018-12-29T02:55:23.049Z,98169.27
2018-12-29T02:58:06.814Z,98165.05
2018-12-29T03:00:57.793Z,98151.22
2018-12-29T03:03:41.755Z,98148.83
2018-12-29T03:06:25.409Z,98099.61
2018-12-29T03:09:16.343Z,98154.25
2018-12-29T03:11:58.393Z,98152.02
2018-12-29T03:14:49.414Z,98136.78
2018-12-29T03:17:32.751Z,98137.23
2018-12-29T03:20:23.772Z,98135.26
2018-12-29T03:23:07.650Z,98128.81
2018-12-29T03:25:58.981Z,98127.52
2018-12-29T03:28:42.961Z,98090.51
2018-12-29T03:31:33.930Z,98132.88
2018-12-29T03:34:18.152Z,98130.58
2018-12-29T03:37:09.121Z,98141.91
2018-12-29T03:39:52.874Z,98140.50
2018-12-29T03:42:37.073Z,98136.83
2018-12-29T03:45:28.998Z,98140.98
2018-12-29T03:48:12.828Z,98134.37
2018-12-29T03:51:03.792Z,98132.52
2018-12-29T03:53:47.407Z,98111.72
2018-12-29T03:56:38.737Z,98131.47
2018-12-29T03:59:23.026Z,98133.16
2018-12-29T04:02:06.811Z,98132.14
2018-12-29T04:04:57.752Z,98130.17
2018-12-29T04:07:41.850Z,98123.55
2018-12-29T04:10:33.166Z,98124.52
2018-12-29T04:13:17.067Z,98135.70
2018-12-29T04:16:08.038Z,98109.45
2018-12-29T04:18:52.025Z,98114.45
2018-12-29T04:21:43.062Z,98125.25
2018-12-29T04:24:26.846Z,98110.32
2018-12-29T04:27:17.883Z,98122.23
2018-12-29T04:30:01.789Z,98108.92
2018-12-29T04:32:52.766Z,98118.13
2018-12-29T04:35:36.854Z,98125.41
2018-12-29T04:38:20.334Z,98117.91
2018-12-29T04:41:04.171Z,98117.55
2018-12-29T04:43:47.749Z,98115.72
2018-12-29T04:46:39.058Z,98117.95
2018-12-29T04:49:21.531Z,98117.55
2018-12-29T04:52:12.492Z,98116.38
2018-12-29T04:54:56.651Z,98105.95
2018-12-29T04:57:47.884Z,98104.20
2018-12-29T05:00:31.831Z,98112.05
2018-12-29T05:03:22.787Z,98118.06
2018-12-29T05:06:07.162Z,98128.03
2018-12-29T05:08:58.131Z,98129.37
2018-12-29T05:11:41.514Z,98124.41
2018-12-29T05:17:41.053Z,98114.94
2018-12-29T05:20:32.012Z,98116.64
2018-12-29T05:23:15.974Z,98127.88
2018-12-29T05:26:07.273Z,98133.18
2018-12-29T05:28:49.290Z,98137.31
2018-12-29T05:31:40.313Z,98138.20
2018-12-29T05:34:24.034Z,98142.78
2018-12-29T05:37:14.987Z,98146.34
2018-12-29T05:39:58.445Z,98143.48
2018-12-29T05:42:49.395Z,98140.41
2018-12-29T05:45:32.959Z,98143.36
2018-12-29T05:48:23.922Z,98143.44
2018-12-29T05:51:07.374Z,98139.64
2018-12-29T05:53:50.881Z,98135.69
2018-12-29T05:56:42.182Z,98150.93
2018-12-29T05:59:26.160Z,98160.53
2018-12-29T06:02:17.256Z,98116.30
2018-12-29T06:05:00.802Z,98158.63
2018-12-29T06:07:51.759Z,98163.11
2018-12-29T06:10:35.129Z,98159.88
2018-12-29T06:13:26.113Z,98177.23
2018-12-29T06:15:58.223Z,98174.44
2018-12-29T06:18:49.471Z,98177.63
2018-12-29T06:21:32.801Z,98185.30
2018-12-29T06:24:16.506Z,98185.73
2018-12-29T06:27:07.457Z,98132.39
2018-12-29T06:29:51.549Z,98184.16
2018-12-29T06:32:42.835Z,98180.74
2018-12-29T06:35:26.513Z,98186.45
2018-12-29T06:38:17.476Z,98184.97
2018-12-29T06:41:08.507Z,98183.47
2018-12-29T06:43:52.293Z,98183.80
2018-12-29T06:46:35.839Z,98191.41
2018-12-29T06:49:19.354Z,98190.19
2018-12-29T06:52:10.310Z,98195.28
2018-12-29T06:54:53.005Z,98199.02
2018-12-29T06:57:43.979Z,98193.15
2018-12-29T07:00:27.530Z,98203.23
2018-12-29T07:03:18.565Z,98155.09
2018-12-29T07:06:02.474Z,98144.00
2018-12-29T07:08:53.428Z,98193.58
2018-12-29T07:11:36.699Z,98176.12
2018-12-29T07:14:28.032Z,98185.42
2018-12-29T07:17:12.023Z,98149.48
2018-12-29T07:20:02.984Z,98195.03
2018-12-29T07:22:46.322Z,98186.73
2018-12-29T07:25:18.076Z,98186.63
2018-12-29T07:28:01.708Z,98194.19
2018-12-29T07:30:52.673Z,98200.50
2018-12-29T07:33:36.694Z,98195.91
2018-12-29T07:36:27.801Z,98189.84
2018-12-29T07:39:11.620Z,98200.44
2018-12-29T07:41:54.984Z,98206.58
2018-12-29T07:44:45.942Z,98209.08
2018-12-29T07:47:28.394Z,98213.63
2018-12-29T07:50:12.555Z,98211.09
2018-12-29T07:53:03.680Z,98207.01
2018-12-29T07:55:48.776Z,98170.19
2018-12-29T07:58:40.641Z,98203.31
2018-12-29T08:01:25.443Z,98208.25
2018-12-29T08:04:35.908Z,98219.60
2018-12-29T08:07:19.721Z,98209.92
2018-12-29T08:10:10.721Z,98217.15
2018-12-29T08:12:54.223Z,98224.73
2018-12-29T08:15:45.221Z,98223.52
2018-12-29T08:18:30.807Z,98223.48
2018-12-29T08:21:22.476Z,98178.69
2018-12-29T08:23:54.264Z,98224.39
2018-12-29T08:26:26.421Z,98230.38
2018-12-29T08:28:58.288Z,98232.91
2018-12-29T08:31:49.805Z,98234.47
2018-12-29T08:34:21.658Z,98235.95
2018-12-29T08:37:13.739Z,98246.55
2018-12-29T08:39:58.961Z,98250.98
2018-12-29T08:42:44.649Z,98214.66
2018-12-29T08:45:30.174Z,98244.28
2018-12-29T08:48:40.749Z,98247.77
2018-12-29T08:51:12.608Z,98259.47
2018-12-29T08:54:04.623Z,98256.41
2018-12-29T08:56:37.248Z,98257.54
2018-12-29T08:59:29.852Z,98258.13
2018-12-29T09:02:17.838Z,98264.36
2018-12-29T09:04:53.160Z,98274.23
2018-12-29T09:07:25.496Z,98274.23
2018-12-29T09:09:57.247Z,98270.41
2018-12-29T09:12:29.203Z,98271.13
2018-12-29T09:15:01.975Z,98270.63
2018-12-29T09:17:47.593Z,98275.02
2018-12-29T09:20:38.639Z,98277.69
2018-12-29T09:23:10.827Z,98275.02
2018-12-29T09:26:01.887Z,98277.98
2018-12-29T09:28:33.729Z,98282.22
2018-12-29T09:31:05.512Z,98277.52
2018-12-29T09:33:37.296Z,98284.89
2018-12-29T09:36:09.519Z,98281.64
2018-12-29T09:38:54.712Z,98291.09
2018-12-29T09:41:26.731Z,98286.86
2018-12-29T09:43:58.503Z,98286.54
2018-12-29T09:46:30.277Z,98284.16
2018-12-29T09:49:02.064Z,98288.30
2018-12-29T09:51:34.293Z,98285.41
2018-12-29T09:54:06.153Z,98283.27
2018-12-29T09:56:38.084Z,98287.59
2018-12-29T09:59:24.595Z,98283.03
2018-12-29T10:02:15.581Z,98281.58
2018-12-29T10:05:01.769Z,98277.11
2018-12-29T10:07:53.677Z,98280.16
2018-12-29T10:10:38.577Z,98278.94
2018-12-29T10:13:22.726Z,98268.25
2018-12-29T10:16:13.703Z,98271.86
2018-12-29T10:18:58.800Z,98265.78
2018-12-29T10:21:50.796Z,98268.48
2018-12-29T10:24:35.130Z,98224.50
2018-12-29T10:27:26.630Z,98270.73
2018-12-29T10:30:10.688Z,98268.78
2018-12-29T10:32:56.241Z,98265.22
2018-12-29T10:35:47.845Z,98220.84
2018-12-29T10:38:32.088Z,98266.11
2018-12-29T10:41:23.291Z,98271.41
2018-12-29T10:44:08.583Z,98270.00
2018-12-29T10:46:59.767Z,98259.87
2018-12-29T10:49:43.925Z,98220.39
2018-12-29T10:52:34.944Z,98257.23
2018-12-29T10:55:22.740Z,98257.19
2018-12-29T10:58:13.764Z,98250.68
2018-12-29T11:00:57.443Z,98246.13
2018-12-29T11:03:48.533Z,98239.04
2018-12-29T11:06:32.496Z,98232.22
2018-12-29T11:09:23.811Z,98223.95
2018-12-29T11:12:07.722Z,98223.34
2018-12-29T11:14:58.751Z,98216.64
2018-12-29T11:17:43.165Z,98213.84
2018-12-29T11:20:34.348Z,98203.88
2018-12-29T11:23:18.082Z,98204.33
2018-12-29T11:26:09.383Z,98196.38
2018-12-29T11:28:53.483Z,98195.93
2018-12-29T11:31:44.440Z,98194.98
2018-12-29T11:34:28.537Z,98187.32
2018-12-29T11:37:19.538Z,98191.10
2018-12-29T11:40:03.823Z,98189.36
2018-12-29T11:42:55.077Z,98194.59
2018-12-29T11:45:37.965Z,98190.23
2018-12-29T11:48:09.861Z,98192.06
2018-12-29T11:51:00.911Z,98186.30
2018-12-29T11:53:56.319Z,98179.08
2018-12-29T11:56:47.346Z,98137.80
2018-12-29T11:59:31.340Z,98177.34
2018-12-29T12:02:41.569Z,98140.51
2018-12-29T12:05:25.075Z,98125.22
2018-12-29T12:08:16.075Z,98164.91
2018-12-29T12:10:59.940Z,98162.57
2018-12-29T12:13:44.682Z,98160.13
2018-12-29T12:16:36.119Z,98112.83
2018-12-29T12:19:20.239Z,98164.27
2018-12-29T12:22:11.294Z,98167.19
2018-12-29T12:24:56.130Z,98169.38
2018-12-29T12:27:47.126Z,98178.44
2018-12-29T12:30:30.736Z,98170.48
2018-12-29T12:33:22.011Z,98165.45
2018-12-29T12:36:05.262Z,98161.03
2018-12-29T12:38:49.353Z,98164.16
2018-12-29T12:41:40.329Z,98160.96
2018-12-29T12:44:24.690Z,98167.95
2018-12-29T12:47:15.773Z,98157.59
2018-12-29T12:49:59.780Z,98152.36
2018-12-29T12:52:51.236Z,98143.80
2018-12-29T12:55:34.810Z,98139.17
2018-12-29T12:58:26.171Z,98136.13
2018-12-29T13:01:30.881Z,98127.52
2018-12-29T13:04:21.883Z,98096.20
2018-12-29T13:07:06.142Z,98122.77
2018-12-29T13:09:57.485Z,98123.92
2018-12-29T13:12:41.438Z,98115.51
2018-12-29T13:15:25.069Z,98111.63
2018-12-29T13:18:16.057Z,98105.40
2018-12-29T13:21:02.943Z,98105.09
2018-12-29T13:23:54.044Z,98097.02
2018-12-29T13:26:37.376Z,98097.94
2018-12-29T13:29:29.057Z,98091.69
2018-12-29T13:32:12.573Z,98098.16
2018-12-29T13:34:57.803Z,98091.69
2018-12-29T13:37:49.029Z,98096.36
2018-12-29T13:40:33.179Z,98096.27
2018-12-29T13:43:24.142Z,98089.43
2018-12-29T13:46:08.572Z,98096.21
2018-12-29T13:48:59.951Z,98094.22
2018-12-29T13:51:43.654Z,98100.11
2018-12-29T13:54:34.883Z,98097.02
2018-12-29T13:57:18.670Z,98095.52
2018-12-29T14:00:09.978Z,98089.92
2018-12-29T14:02:53.733Z,98090.70
2018-12-29T14:05:44.693Z,98088.72
2018-12-29T14:08:28.318Z,98083.45
2018-12-29T14:11:19.273Z,98037.44
2018-12-29T14:14:22.032Z,98044.05
2018-12-29T14:17:12.990Z,98086.89
2018-12-29T14:19:56.684Z,98097.11
2018-12-29T14:22:47.725Z,98088.94
2018-12-29T14:25:31.650Z,98105.67
2018-12-29T14:28:22.591Z,98097.64
2018-12-29T14:31:06.448Z,98096.34
2018-12-29T14:33:38.522Z,98079.39
2018-12-29T14:36:20.826Z,98077.68
2018-12-29T14:39:05.938Z,98038.33
2018-12-29T14:41:57.859Z,98088.35
2018-12-29T14:44:39.962Z,98087.14
2018-12-29T14:47:30.909Z,98085.60
2018-12-29T14:50:14.887Z,98097.78
2018-12-29T14:53:05.906Z,98106.58
2018-12-29T14:55:50.029Z,98104.13
2018-12-29T14:58:33.769Z,98120.11
2018-12-29T15:01:17.427Z,98075.48
2018-12-29T15:04:08.639Z,98134.82
2018-12-29T15:06:51.960Z,98078.08
2018-12-29T15:10:01.824Z,98132.22
2018-12-29T15:12:45.674Z,98125.02
2018-12-29T15:15:36.888Z,98116.69
2018-12-29T15:18:27.540Z,98110.85
2018-12-29T15:21:18.725Z,98090.73
2018-12-29T15:24:00.726Z,98083.91
2018-12-29T15:26:52.098Z,98066.11
2018-12-29T15:29:57.023Z,98071.45
2018-12-29T15:32:47.987Z,98075.60
2018-12-29T15:35:32.229Z,98070.23
2018-12-29T15:38:23.357Z,98058.76
2018-12-29T15:41:28.083Z,98044.72
2018-12-29T15:44:38.968Z,98046.20
2018-12-29T15:47:43.226Z,98029.75
2018-12-29T15:50:34.982Z,98022.88
2018-12-29T15:53:38.067Z,98010.31
2018-12-29T15:56:29.110Z,97997.53
2018-12-29T15:59:12.459Z,97993.59
2018-12-29T16:02:03.409Z,97996.41
2018-12-29T16:04:47.305Z,97990.09
2018-12-29T16:07:38.266Z,97975.63
2018-12-29T16:10:22.401Z,97977.77
2018-12-29T16:13:13.355Z,97982.50
2018-12-29T16:15:56.860Z,97987.45
2018-12-29T16:18:48.403Z,97984.12
2018-12-29T16:21:52.917Z,98002.92
2018-12-29T16:24:44.479Z,98031.67
2018-12-29T16:27:56.113Z,98037.48
2018-12-29T16:31:00.351Z,98046.82
2018-12-29T16:33:53.990Z,98057.04
2018-12-29T16:36:55.565Z,98043.41
2018-12-29T16:39:39.746Z,98050.62
2018-12-29T16:42:23.484Z,98054.33
2018-12-29T16:45:14.420Z,98054.05
2018-12-29T16:47:58.060Z,98060.91
2018-12-29T16:50:49.000Z,98064.48
2018-12-29T16:53:32.757Z,98061.22
2018-12-29T16:56:23.691Z,98068.15
2018-12-29T16:59:07.361Z,98055.34
2018-12-29T17:01:58.308Z,98063.24
2018-12-29T17:04:42.223Z,98059.63
2018-12-29T17:07:33.251Z,98053.39
2018-12-29T17:10:16.736Z,98036.93
2018-12-29T17:13:07.758Z,98036.08
2018-12-29T17:15:51.690Z,98029.70
2018-12-29T17:18:42.638Z,98018.31
2018-12-29T17:21:46.673Z,97959.99
2018-12-29T17:24:37.632Z,98008.86
2018-12-29T17:27:42.198Z,98005.52
2018-12-29T17:30:33.139Z,97994.55
2018-12-29T17:33:16.400Z,98004.70
2018-12-29T17:36:07.337Z,97996.73
2018-12-29T17:38:52.570Z,97984.51
2018-12-29T17:41:43.850Z,97988.84
2018-12-29T17:44:28.059Z,97985.54
2018-12-29T17:47:18.996Z,97985.70
2018-12-29T17:50:02.737Z,97972.23
2018-12-29T17:52:53.687Z,97981.30
2018-12-29T17:55:37.009Z,97969.23
2018-12-29T17:58:09.306Z,97983.28
2018-12-29T18:01:00.315Z,97981.41
2018-12-29T18:03:43.807Z,97985.26
2018-12-29T18:09:38.283Z,97963.39
2018-12-29T18:12:29.323Z,97946.38
2018-12-29T18:15:13.261Z,97936.69
2018-12-29T18:17:57.180Z,97891.88
2018-12-29T18:20:48.453Z,97927.97
2018-12-29T18:23:32.141Z,97913.53
2018-12-29T18:26:23.150Z,97921.59
2018-12-29T18:29:06.897Z,97908.25
2018-12-29T18:31:57.840Z,97890.20
2018-12-29T18:34:41.448Z,97880.84
2018-12-29T18:37:32.384Z,97860.11
2018-12-29T18:40:16.105Z,97882.27
2018-12-29T18:43:07.368Z,97871.67
2018-12-29T18:45:50.911Z,97888.91
2018-12-29T18:48:41.867Z,97895.00
2018-12-29T18:51:25.925Z,97899.11
2018-12-29T18:54:17.152Z,97870.86
2018-12-29T18:57:00.677Z,97932.74
2018-12-29T18:59:51.969Z,97871.09
2018-12-29T19:02:37.414Z,97911.55
2018-12-29T19:05:29.053Z,97910.75
2018-12-29T19:08:12.712Z,97920.69
2018-12-29T19:11:03.644Z,97932.28
2018-12-29T19:13:47.391Z,97933.69
2018-12-29T19:16:38.669Z,97942.27
2018-12-29T19:19:22.537Z,97941.36
2018-12-29T19:22:13.539Z,97924.33
2018-12-29T19:24:57.797Z,97947.08
2018-12-29T19:27:49.899Z,97946.66
2018-12-29T19:30:44.639Z,97952.20
2018-12-29T19:33:35.872Z,97944.03
2018-12-29T19:36:19.467Z,97941.56
2018-12-29T19:39:04.728Z,97953.07
2018-12-29T19:41:54.955Z,97942.41
2018-12-29T19:44:41.250Z,97931.36
2018-12-29T19:47:45.180Z,97923.94
2018-12-29T19:50:36.512Z,97892.13
2018-12-29T19:53:18.538Z,97864.68
2018-12-29T19:56:09.484Z,97836.11
2018-12-29T19:58:54.434Z,97839.22
2018-12-29T20:01:45.370Z,97828.55
2018-12-29T20:04:49.346Z,97826.96
2018-12-29T20:07:40.655Z,97824.47
2018-12-29T20:10:24.172Z,97809.28
2018-12-29T20:13:15.106Z,97815.38
2018-12-29T20:15:59.300Z,97811.70
2018-12-29T20:18:50.319Z,97796.07
2018-12-29T20:21:33.536Z,97795.16
2018-12-29T20:24:24.803Z,97795.55
2018-12-29T20:27:08.067Z,97780.61
2018-12-29T20:29:59.356Z,97774.68
2018-12-29T20:32:43.380Z,97784.66
2018-12-29T20:35:34.318Z,97780.69
2018-12-29T20:38:18.032Z,97773.37
2018-12-29T20:41:01.771Z,97773.28
2018-12-29T20:43:45.210Z,97779.64
2018-12-29T20:46:28.609Z,97789.07
2018-12-29T20:49:19.542Z,97788.94
2018-12-29T20:52:03.693Z,97782.45
2018-12-29T20:54:47.038Z,97773.45
2018-12-29T20:57:38.260Z,97776.50
2018-12-29T21:00:11.361Z,97773.97
2018-12-29T21:03:02.298Z,97771.70
2018-12-29T21:05:45.824Z,97761.79
2018-12-29T21:08:37.013Z,97741.28
2018-12-29T21:11:20.678Z,97756.91
2018-12-29T21:14:12.942Z,97760.63
2018-12-29T21:16:56.541Z,97743.64
2018-12-29T21:19:47.486Z,97742.73
2018-12-29T21:22:31.697Z,97719.39
2018-12-29T21:25:22.652Z,97724.50
2018-12-29T21:28:06.155Z,97687.16
2018-12-29T21:30:37.962Z,97717.11
2018-12-29T21:33:21.341Z,97703.77
2018-12-29T21:36:12.656Z,97713.89
2018-12-29T21:38:54.691Z,97714.52
2018-12-29T21:41:45.631Z,97704.97
2018-12-29T21:44:29.579Z,97700.09
2018-12-29T21:47:13.322Z,97704.69
2018-12-29T21:50:04.418Z,97706.98
2018-12-29T21:52:48.051Z,97693.26
2018-12-29T21:55:32.282Z,97709.80
2018-12-29T21:58:23.222Z,97705.23
2018-12-29T22:01:13.519Z,97696.45
2018-12-29T22:04:04.526Z,97693.02
2018-12-29T22:07:08.394Z,97693.68
2018-12-29T22:09:59.581Z,97701.31
2018-12-29T22:12:42.954Z,97710.67
2018-12-29T22:15:34.163Z,97710.47
2018-12-29T22:18:18.132Z,97707.17
2018-12-29T22:21:09.081Z,97668.87
2018-12-29T22:24:13.906Z,97717.22
2018-12-29T22:27:04.921Z,97711.20
2018-12-29T22:29:48.554Z,97718.52
2018-12-29T22:32:39.566Z,97715.78
2018-12-29T22:35:23.688Z,97717.54
2018-12-29T22:38:14.627Z,97719.81
2018-12-29T22:40:58.569Z,97686.08
2018-12-29T22:43:49.501Z,97726.75
2018-12-29T22:46:43.456Z,97709.13
2018-12-29T22:49:34.385Z,97710.98
2018-12-29T22:52:17.932Z,97710.98
2018-12-29T22:55:08.856Z,97703.87
2018-12-29T22:58:13.486Z,97685.44
2018-12-29T23:01:04.670Z,97693.56
2018-12-29T23:04:09.139Z,97675.13
2018-12-29T23:07:00.076Z,97670.47
2018-12-29T23:09:43.814Z,97667.34
2018-12-29T23:12:34.764Z,97662.05
2018-12-29T23:15:28.869Z,97672.55
2018-12-29T23:18:19.892Z,97657.70
2018-12-29T23:21:24.393Z,97652.57
2018-12-29T23:24:15.330Z,97663.13
2018-12-29T23:26:59.049Z,97667.02
2018-12-29T23:29:49.987Z,97680.45
2018-12-29T23:32:33.930Z,97648.04
2018-12-29T23:35:24.930Z,97678.49
2018-12-29T23:38:29.222Z,97683.89
2018-12-29T23:41:20.186Z,97671.75
2018-12-29T23:44:24.890Z,97661.55
2018-12-29T23:47:15.829Z,97662.02
2018-12-29T23:49:59.838Z,97651.18
2018-12-29T23:52:50.881Z,97655.42
2018-12-29T23:55:55.626Z,97653.13
2018-12-29T23:58:46.823Z,97647.44
